createdAt,value
2023-08-03T00:00:17.849Z,42.53
2023-08-03T00:01:19.540Z,42.20
2023-08-03T00:02:22.203Z,42.30
2023-08-03T00:03:26.581Z,41.97
2023-08-03T00:04:28.504Z,41.85
2023-08-03T00:05:32.728Z,42.04
2023-08-03T00:06:34.452Z,41.45
2023-08-03T00:07:36.212Z,41.48
2023-08-03T00:08:37.789Z,42.21
2023-08-03T00:09:41.148Z,41.69
2023-08-03T00:10:42.859Z,41.48
2023-08-03T00:11:44.854Z,41.83
2023-08-03T00:12:49.758Z,41.83
2023-08-03T00:13:51.451Z,41.65
2023-08-03T00:14:53.893Z,41.29
2023-08-03T00:15:56.584Z,41.01
2023-08-03T00:16:58.290Z,40.23
2023-08-03T00:17:59.992Z,41.13
2023-08-03T00:19:01.655Z,41.40
2023-08-03T00:20:05.691Z,40.57
2023-08-03T00:21:07.509Z,40.39
2023-08-03T00:22:09.494Z,40.95
2023-08-03T00:23:11.138Z,39.85
2023-08-03T00:24:12.727Z,40.31
2023-08-03T00:25:14.694Z,39.54
2023-08-03T00:26:16.411Z,40.12
2023-08-03T00:27:18.041Z,39.53
2023-08-03T00:28:22.362Z,39.20
2023-08-03T00:29:24.140Z,39.47
2023-08-03T00:30:25.746Z,39.34
2023-08-03T00:31:29.549Z,39.15
2023-08-03T00:32:33.525Z,39.46
2023-08-03T00:33:35.362Z,39.31
2023-08-03T00:34:39.205Z,38.74
2023-08-03T00:35:43.411Z,38.65
2023-08-03T00:36:45.046Z,37.74
2023-08-03T00:37:46.698Z,37.43
2023-08-03T00:38:49.734Z,37.11
2023-08-03T00:39:54.210Z,36.43
2023-08-03T00:40:55.891Z,36.48
2023-08-03T00:41:59.289Z,36.00
2023-08-03T00:43:05.310Z,35.57
2023-08-03T00:44:07.001Z,35.69
2023-08-03T00:45:10.490Z,35.84
2023-08-03T00:46:12.281Z,35.90
2023-08-03T00:47:16.522Z,36.00
2023-08-03T00:48:20.331Z,36.03
2023-08-03T00:49:28.616Z,36.07
2023-08-03T00:50:32.782Z,35.97
2023-08-03T00:51:34.834Z,36.27
2023-08-03T00:52:39.708Z,36.25
2023-08-03T00:53:47.018Z,36.15
2023-08-03T00:54:50.477Z,36.16
2023-08-03T00:55:52.074Z,36.03
2023-08-03T00:56:54.697Z,35.74
2023-08-03T00:57:56.402Z,36.06
2023-08-03T00:58:58.012Z,36.00
2023-08-03T00:59:59.973Z,35.84
2023-08-03T01:01:04.488Z,36.38
2023-08-03T01:02:07.040Z,36.10
2023-08-03T01:03:08.795Z,36.12
2023-08-03T01:04:10.967Z,36.35
2023-08-03T01:05:12.757Z,36.46
2023-08-03T01:06:14.552Z,36.49
2023-08-03T01:07:18.724Z,36.10
2023-08-03T01:08:20.516Z,35.70
2023-08-03T01:09:22.066Z,35.83
2023-08-03T01:10:23.851Z,35.87
2023-08-03T01:11:27.946Z,35.69
2023-08-03T01:12:32.723Z,36.03
2023-08-03T01:13:34.542Z,36.27
2023-08-03T01:14:36.348Z,36.46
2023-08-03T01:15:38.067Z,36.28
2023-08-03T01:16:45.251Z,36.16
2023-08-03T01:17:49.452Z,36.83
2023-08-03T01:18:52.146Z,36.45
2023-08-03T01:19:53.910Z,36.76
2023-08-03T01:20:57.046Z,36.79
2023-08-03T01:22:03.460Z,36.69
2023-08-03T01:23:06.219Z,36.61
2023-08-03T01:24:08.516Z,36.83
2023-08-03T01:25:11.306Z,37.07
2023-08-03T01:26:15.226Z,36.73
2023-08-03T01:27:16.886Z,36.46
2023-08-03T01:28:18.493Z,36.62
2023-08-03T01:29:20.057Z,36.65
2023-08-03T01:30:24.560Z,37.04
2023-08-03T01:31:26.261Z,37.17
2023-08-03T01:32:27.955Z,37.43
2023-08-03T01:33:29.739Z,37.14
2023-08-03T01:34:31.506Z,37.14
2023-08-03T01:35:33.409Z,37.33
2023-08-03T01:36:35.392Z,36.97
2023-08-03T01:37:37.228Z,37.45
2023-08-03T01:38:41.303Z,37.16
2023-08-03T01:39:46.400Z,37.15
2023-08-03T01:40:48.132Z,37.41
2023-08-03T01:41:49.971Z,37.68
2023-08-03T01:42:53.745Z,37.46
2023-08-03T01:44:22.585Z,37.55
2023-08-03T01:45:24.548Z,37.35
2023-08-03T01:46:26.191Z,37.80
2023-08-03T01:47:27.904Z,37.69
2023-08-03T01:48:29.658Z,37.56
2023-08-03T01:49:32.655Z,37.53
2023-08-03T01:50:35.527Z,37.53
2023-08-03T01:51:41.598Z,37.79
2023-08-03T01:52:43.602Z,37.87
2023-08-03T01:53:47.622Z,37.90
2023-08-03T01:54:49.256Z,38.04
2023-08-03T01:55:51.153Z,37.90
2023-08-03T01:56:56.295Z,38.11
2023-08-03T01:57:58.201Z,38.02
2023-08-03T01:58:59.826Z,38.46
2023-08-03T02:00:01.551Z,38.45
2023-08-03T02:01:03.890Z,38.10
2023-08-03T02:02:05.979Z,38.36
2023-08-03T02:03:10.215Z,38.75
2023-08-03T02:04:15.561Z,38.54
2023-08-03T02:05:18.568Z,38.48
2023-08-03T02:06:21.506Z,38.76
2023-08-03T02:07:54.330Z,38.72
2023-08-03T02:08:58.599Z,39.19
2023-08-03T02:10:05.376Z,39.65
2023-08-03T02:11:07.102Z,39.21
2023-08-03T02:12:08.941Z,39.29
2023-08-03T02:13:10.700Z,39.05
2023-08-03T02:14:14.899Z,39.24
2023-08-03T02:15:17.407Z,39.26
2023-08-03T02:16:25.338Z,39.43
2023-08-03T02:17:30.218Z,39.44
2023-08-03T02:18:34.169Z,39.46
2023-08-03T02:19:39.024Z,39.18
2023-08-03T02:20:42.858Z,39.25
2023-08-03T02:21:44.719Z,39.17
2023-08-03T02:22:46.951Z,39.45
2023-08-03T02:23:48.620Z,39.66
2023-08-03T02:24:50.206Z,39.42
2023-08-03T02:25:52.410Z,39.39
2023-08-03T02:26:54.043Z,39.41
2023-08-03T02:27:55.742Z,39.35
2023-08-03T02:28:59.869Z,39.52
2023-08-03T02:30:02.483Z,39.45
2023-08-03T02:31:08.413Z,39.67
2023-08-03T02:32:20.790Z,39.79
2023-08-03T02:33:26.678Z,39.48
2023-08-03T02:34:28.396Z,39.48
2023-08-03T02:35:35.487Z,39.93
2023-08-03T02:36:37.258Z,40.30
2023-08-03T02:37:43.634Z,40.48
2023-08-03T02:38:51.489Z,40.17
2023-08-03T02:39:54.030Z,39.75
2023-08-03T02:41:02.858Z,40.09
2023-08-03T02:42:07.775Z,39.75
2023-08-03T02:43:13.408Z,39.98
2023-08-03T02:44:20.994Z,39.73
2023-08-03T02:45:27.382Z,39.99
2023-08-03T02:46:31.651Z,39.61
2023-08-03T02:47:34.027Z,39.92
2023-08-03T02:48:40.622Z,40.05
2023-08-03T02:49:42.294Z,40.28
2023-08-03T02:50:44.130Z,39.96
2023-08-03T02:51:48.517Z,40.05
2023-08-03T02:52:52.772Z,39.96
2023-08-03T02:53:54.782Z,40.15
2023-08-03T02:54:59.247Z,39.67
2023-08-03T02:56:01.114Z,40.04
2023-08-03T02:57:07.691Z,39.84
2023-08-03T02:58:09.722Z,40.02
2023-08-03T02:59:12.118Z,39.94
2023-08-03T03:00:18.812Z,39.85
2023-08-03T03:01:23.649Z,39.75
2023-08-03T03:02:28.692Z,39.88
2023-08-03T03:03:30.869Z,40.18
2023-08-03T03:04:32.732Z,39.80
2023-08-03T03:05:34.424Z,39.92
2023-08-03T03:06:36.148Z,39.61
2023-08-03T03:07:40.237Z,39.93
2023-08-03T03:08:42.062Z,39.79
2023-08-03T03:09:43.707Z,40.04
2023-08-03T03:10:45.438Z,39.81
2023-08-03T03:11:47.138Z,40.04
2023-08-03T03:12:49.935Z,39.60
2023-08-03T03:13:51.690Z,39.84
2023-08-03T03:14:56.482Z,39.66
2023-08-03T03:15:58.281Z,39.73
2023-08-03T03:17:03.301Z,39.91
2023-08-03T03:18:05.149Z,40.15
2023-08-03T03:19:06.715Z,39.90
2023-08-03T03:20:08.948Z,40.20
2023-08-03T03:21:10.750Z,40.13
2023-08-03T03:22:12.602Z,39.86
2023-08-03T03:23:18.128Z,40.30
2023-08-03T03:24:22.015Z,39.76
2023-08-03T03:25:23.710Z,39.85
2023-08-03T03:26:27.844Z,39.99
2023-08-03T03:27:32.174Z,39.96
2023-08-03T03:28:33.836Z,40.02
2023-08-03T03:29:35.516Z,40.20
2023-08-03T03:30:37.150Z,40.22
2023-08-03T03:31:38.756Z,39.96
2023-08-03T03:32:40.655Z,39.72
2023-08-03T03:33:42.369Z,39.83
2023-08-03T03:34:49.967Z,40.07
2023-08-03T03:35:53.979Z,39.79
2023-08-03T03:36:55.655Z,39.91
2023-08-03T03:37:59.690Z,39.81
2023-08-03T03:39:03.855Z,40.04
2023-08-03T03:40:06.840Z,39.80
2023-08-03T03:41:13.953Z,40.03
2023-08-03T03:42:18.766Z,39.66
2023-08-03T03:43:20.317Z,39.95
2023-08-03T03:44:27.727Z,39.54
2023-08-03T03:45:30.606Z,39.35
2023-08-03T03:46:32.384Z,39.59
2023-08-03T03:47:34.293Z,39.66
2023-08-03T03:48:37.253Z,39.89
2023-08-03T03:49:40.109Z,39.47
2023-08-03T03:50:41.840Z,39.56
2023-08-03T03:51:43.972Z,39.63
2023-08-03T03:52:46.364Z,39.49
2023-08-03T03:53:51.776Z,39.60
2023-08-03T03:54:55.966Z,39.41
2023-08-03T03:55:58.777Z,39.10
2023-08-03T03:57:01.781Z,38.97
2023-08-03T03:58:07.821Z,39.30
2023-08-03T03:59:10.480Z,39.47
2023-08-03T04:00:14.049Z,39.30
2023-08-03T04:01:18.443Z,39.35
2023-08-03T04:02:20.944Z,39.16
2023-08-03T04:03:25.236Z,39.33
2023-08-03T04:04:29.728Z,39.11
2023-08-03T04:05:32.992Z,39.55
2023-08-03T04:06:37.001Z,39.35
2023-08-03T04:07:42.003Z,39.44
2023-08-03T04:08:43.579Z,39.49
2023-08-03T04:09:45.166Z,39.26
2023-08-03T04:11:48.537Z,39.17
2023-08-03T04:12:50.876Z,39.51
2023-08-03T04:13:58.286Z,39.25
2023-08-03T04:15:02.123Z,39.42
2023-08-03T04:16:04.059Z,39.42
2023-08-03T04:17:07.992Z,39.48
2023-08-03T04:19:13.106Z,39.39
2023-08-03T04:20:14.826Z,39.42
2023-08-03T04:21:20.502Z,39.58
2023-08-03T04:22:22.122Z,39.62
2023-08-03T04:23:23.712Z,39.53
2023-08-03T04:25:29.387Z,39.32
2023-08-03T04:26:36.003Z,39.32
2023-08-03T04:27:39.678Z,39.42
2023-08-03T04:28:43.975Z,39.19
2023-08-03T04:29:46.622Z,39.04
2023-08-03T04:30:48.362Z,39.33
2023-08-03T04:31:49.908Z,39.36
2023-08-03T04:32:52.095Z,39.09
2023-08-03T04:33:54.367Z,39.26
2023-08-03T04:34:58.245Z,39.19
2023-08-03T04:36:01.209Z,39.08
2023-08-03T04:37:07.742Z,39.19
2023-08-03T04:38:10.267Z,39.03
2023-08-03T04:39:17.190Z,38.98
2023-08-03T04:40:19.607Z,38.81
2023-08-03T04:41:22.681Z,38.64
2023-08-03T04:42:26.025Z,38.73
2023-08-03T04:43:28.554Z,38.76
2023-08-03T04:44:30.176Z,38.74
2023-08-03T04:45:31.928Z,38.47
2023-08-03T04:46:36.651Z,38.21
2023-08-03T04:47:39.331Z,37.76
2023-08-03T04:48:41.142Z,37.70
2023-08-03T04:49:44.041Z,38.43
2023-08-03T04:50:47.501Z,38.14
2023-08-03T04:51:51.320Z,37.82
2023-08-03T04:52:55.666Z,37.57
2023-08-03T04:53:58.220Z,37.51
2023-08-03T04:55:02.509Z,37.12
2023-08-03T04:56:04.443Z,37.40
2023-08-03T04:57:06.241Z,37.24
2023-08-03T04:58:12.578Z,37.12
2023-08-03T04:59:17.415Z,37.17
2023-08-03T05:00:22.936Z,36.89
2023-08-03T05:01:27.207Z,36.96
2023-08-03T05:02:30.287Z,36.67
2023-08-03T05:03:31.875Z,36.65
2023-08-03T05:04:33.638Z,36.90
2023-08-03T05:05:39.096Z,36.59
2023-08-03T05:06:41.917Z,36.64
2023-08-03T05:07:43.684Z,36.21
2023-08-03T05:08:45.191Z,36.43
2023-08-03T05:09:46.855Z,36.33
2023-08-03T05:10:48.492Z,36.68
2023-08-03T05:11:50.305Z,36.38
2023-08-03T05:12:54.828Z,36.32
2023-08-03T05:13:56.610Z,36.08
2023-08-03T05:14:58.874Z,36.12
2023-08-03T05:16:00.710Z,36.33
2023-08-03T05:17:02.523Z,36.03
2023-08-03T05:18:07.545Z,36.51
2023-08-03T05:19:09.354Z,36.42
2023-08-03T05:20:11.393Z,36.54
2023-08-03T05:21:15.726Z,36.64
2023-08-03T05:22:17.445Z,36.48
2023-08-03T05:23:20.642Z,36.64
2023-08-03T05:24:22.312Z,36.93
2023-08-03T05:25:23.833Z,36.85
2023-08-03T05:26:26.192Z,36.29
2023-08-03T05:27:27.948Z,36.40
2023-08-03T05:28:29.501Z,36.46
2023-08-03T05:29:31.475Z,35.79
2023-08-03T05:30:34.413Z,35.84
2023-08-03T05:31:38.658Z,36.00
2023-08-03T05:32:40.556Z,36.07
2023-08-03T05:33:42.628Z,36.15
2023-08-03T05:34:44.367Z,36.26
2023-08-03T05:35:51.051Z,36.29
2023-08-03T05:36:53.509Z,36.11
2023-08-03T05:37:57.434Z,36.42
2023-08-03T05:38:59.203Z,35.55
2023-08-03T05:40:03.902Z,36.03
2023-08-03T05:41:13.190Z,36.40
2023-08-03T05:42:15.720Z,36.12
2023-08-03T05:43:17.461Z,36.02
2023-08-03T05:44:19.042Z,35.80
2023-08-03T05:45:35.893Z,36.07
2023-08-03T05:46:39.924Z,36.09
2023-08-03T05:47:41.695Z,36.26
2023-08-03T05:48:43.638Z,35.70
2023-08-03T05:49:45.403Z,36.05
2023-08-03T05:50:47.978Z,36.02
2023-08-03T05:51:51.818Z,35.58
2023-08-03T05:52:55.649Z,35.63
2023-08-03T05:53:57.910Z,35.24
2023-08-03T05:55:01.952Z,34.74
2023-08-03T05:56:12.298Z,34.40
2023-08-03T05:57:14.628Z,34.80
2023-08-03T05:58:18.311Z,34.87
2023-08-03T05:59:22.657Z,34.89
2023-08-03T06:00:25.836Z,34.44
2023-08-03T06:01:27.599Z,35.21
2023-08-03T06:02:35.397Z,34.59
2023-08-03T06:03:42.444Z,34.56
2023-08-03T06:04:44.966Z,34.72
2023-08-03T06:05:50.505Z,34.80
2023-08-03T06:06:52.336Z,34.93
2023-08-03T06:07:55.286Z,34.18
2023-08-03T06:08:58.866Z,34.38
2023-08-03T06:10:00.557Z,34.34
2023-08-03T06:11:04.715Z,34.16
2023-08-03T06:12:15.286Z,34.52
2023-08-03T06:13:19.259Z,34.56
2023-08-03T06:14:23.616Z,34.42
2023-08-03T06:15:25.199Z,34.75
2023-08-03T06:16:27.149Z,34.90
2023-08-03T06:17:31.238Z,34.80
2023-08-03T06:18:35.154Z,34.38
2023-08-03T06:19:39.136Z,33.92
2023-08-03T06:20:44.776Z,33.80
2023-08-03T06:21:46.678Z,34.23
2023-08-03T06:22:48.570Z,34.28
2023-08-03T06:23:52.940Z,34.19
2023-08-03T06:24:57.052Z,34.47
2023-08-03T06:25:59.662Z,33.88
2023-08-03T06:27:01.524Z,33.99
2023-08-03T06:28:04.973Z,34.27
2023-08-03T06:29:10.334Z,33.95
2023-08-03T06:30:13.854Z,33.57
2023-08-03T06:31:17.988Z,33.68
2023-08-03T06:32:26.684Z,33.26
2023-08-03T06:33:28.452Z,32.84
2023-08-03T06:34:30.195Z,32.89
2023-08-03T06:35:39.486Z,32.07
2023-08-03T06:36:43.974Z,32.45
2023-08-03T06:37:45.639Z,31.66
2023-08-03T06:38:47.721Z,31.53
2023-08-03T06:39:51.642Z,31.45
2023-08-03T06:40:53.372Z,31.44
2023-08-03T06:41:55.271Z,31.20
2023-08-03T06:42:58.003Z,31.22
2023-08-03T06:44:01.230Z,31.26
2023-08-03T06:45:03.073Z,31.05
2023-08-03T06:46:06.133Z,31.75
2023-08-03T06:47:07.877Z,31.26
2023-08-03T06:48:09.915Z,30.90
2023-08-03T06:49:13.990Z,30.42
2023-08-03T06:50:15.795Z,30.35
2023-08-03T06:51:21.438Z,30.85
2023-08-03T06:52:23.237Z,31.02
2023-08-03T06:53:27.202Z,30.53
2023-08-03T06:54:29.822Z,30.27
2023-08-03T06:55:31.982Z,30.51
2023-08-03T06:56:37.842Z,30.46
2023-08-03T06:57:42.873Z,30.43
2023-08-03T06:58:47.227Z,30.43
2023-08-03T06:59:48.750Z,30.40
2023-08-03T07:00:50.990Z,30.33
2023-08-03T07:01:55.109Z,30.42
2023-08-03T07:02:59.106Z,30.49
2023-08-03T07:04:01.203Z,30.51
2023-08-03T07:05:04.089Z,30.82
2023-08-03T07:06:08.444Z,30.59
2023-08-03T07:07:10.198Z,30.90
2023-08-03T07:08:11.966Z,30.88
2023-08-03T07:09:13.665Z,31.18
2023-08-03T07:10:17.846Z,30.59
2023-08-03T07:11:19.537Z,30.43
2023-08-03T07:12:23.702Z,30.67
2023-08-03T07:13:27.731Z,30.89
2023-08-03T07:14:29.460Z,31.20
2023-08-03T07:15:35.367Z,30.19
2023-08-03T07:16:39.570Z,30.16
2023-08-03T07:17:41.525Z,30.76
2023-08-03T07:18:43.340Z,31.64
2023-08-03T07:19:45.287Z,31.53
2023-08-03T07:20:46.969Z,31.58
2023-08-03T07:21:48.565Z,30.62
2023-08-03T07:22:50.293Z,30.45
2023-08-03T07:23:52.134Z,30.53
2023-08-03T07:24:57.920Z,30.55
2023-08-03T07:26:02.373Z,30.59
2023-08-03T07:27:04.453Z,31.40
2023-08-03T07:28:06.163Z,31.08
2023-08-03T07:29:10.229Z,30.90
2023-08-03T07:30:12.651Z,30.33
2023-08-03T07:31:17.469Z,30.55
2023-08-03T07:32:19.111Z,31.07
2023-08-03T07:33:20.657Z,30.63
2023-08-03T07:34:23.057Z,30.49
2023-08-03T07:35:24.676Z,29.86
2023-08-03T07:36:26.386Z,30.13
2023-08-03T07:37:30.815Z,30.35
2023-08-03T07:38:32.506Z,30.11
2023-08-03T07:39:34.628Z,30.11
2023-08-03T07:40:39.121Z,30.39
2023-08-03T07:41:43.266Z,30.97
2023-08-03T07:42:45.194Z,30.62
2023-08-03T07:43:48.100Z,30.57
2023-08-03T07:44:55.495Z,29.96
2023-08-03T07:45:57.201Z,29.99
2023-08-03T07:47:01.209Z,29.34
2023-08-03T07:48:02.721Z,29.98
2023-08-03T07:49:06.938Z,30.32
2023-08-03T07:50:08.824Z,29.89
2023-08-03T07:51:12.693Z,29.99
2023-08-03T07:52:14.592Z,30.10
2023-08-03T07:53:16.217Z,30.17
2023-08-03T07:54:17.916Z,30.26
2023-08-03T07:55:19.783Z,30.44
2023-08-03T07:56:22.968Z,30.63
2023-08-03T07:57:24.626Z,30.09
2023-08-03T07:58:26.311Z,29.48
2023-08-03T07:59:30.142Z,29.80
2023-08-03T08:00:31.853Z,29.33
2023-08-03T08:01:33.970Z,29.14
2023-08-03T08:02:38.415Z,29.21
2023-08-03T08:03:41.293Z,29.55
2023-08-03T08:04:50.524Z,29.77
2023-08-03T08:06:04.103Z,29.32
2023-08-03T08:07:06.955Z,29.04
2023-08-03T08:08:10.914Z,29.03
2023-08-03T08:09:12.495Z,28.54
2023-08-03T08:10:14.321Z,29.12
2023-08-03T08:11:18.264Z,29.70
2023-08-03T08:12:20.013Z,29.71
2023-08-03T08:13:21.603Z,28.85
2023-08-03T08:14:25.710Z,29.21
2023-08-03T08:15:29.130Z,29.16
2023-08-03T08:16:31.418Z,29.83
2023-08-03T08:17:33.138Z,30.24
2023-08-03T08:18:35.499Z,30.32
2023-08-03T08:19:39.463Z,28.82
2023-08-03T08:20:41.205Z,29.03
2023-08-03T08:21:43.162Z,29.40
2023-08-03T08:22:45.254Z,28.77
2023-08-03T08:23:47.107Z,28.91
2023-08-03T08:24:51.142Z,29.65
2023-08-03T08:25:52.915Z,29.90
2023-08-03T08:26:55.238Z,29.77
2023-08-03T08:27:57.133Z,29.45
2023-08-03T08:29:05.053Z,29.51
2023-08-03T08:30:09.511Z,29.40
2023-08-03T08:31:11.603Z,29.76
2023-08-03T08:32:13.483Z,29.64
2023-08-03T08:33:16.870Z,29.98
2023-08-03T08:34:18.686Z,29.82
2023-08-03T08:35:20.342Z,30.34
2023-08-03T08:36:24.116Z,30.06
2023-08-03T08:37:26.040Z,30.79
2023-08-03T08:38:27.814Z,29.97
2023-08-03T08:39:30.927Z,30.25
2023-08-03T08:40:36.895Z,29.16
2023-08-03T08:41:42.474Z,29.46
2023-08-03T08:42:55.390Z,29.40
2023-08-03T08:43:59.372Z,29.81
2023-08-03T08:45:01.032Z,29.76
2023-08-03T08:46:02.673Z,29.78
2023-08-03T08:47:05.709Z,30.37
2023-08-03T08:50:22.351Z,29.16
2023-08-03T08:52:31.012Z,29.60
2023-08-03T08:54:17.913Z,29.31
2023-08-03T09:00:03.699Z,29.85
2023-08-03T09:01:05.958Z,29.49
2023-08-03T09:02:10.469Z,29.89
2023-08-03T09:03:13.517Z,30.16
2023-08-03T09:06:46.443Z,29.94
2023-08-03T09:08:08.670Z,30.89
2023-08-03T09:09:10.394Z,30.91
2023-08-03T09:10:13.306Z,30.66
2023-08-03T09:11:14.984Z,30.93
2023-08-03T09:12:27.084Z,31.45
2023-08-03T09:13:33.097Z,30.95
2023-08-03T09:14:50.168Z,30.08
2023-08-03T09:15:52.118Z,29.89
2023-08-03T09:16:56.343Z,29.65
2023-08-03T09:18:05.766Z,30.16
2023-08-03T09:19:09.635Z,29.95
2023-08-03T09:25:09.338Z,29.66
2023-08-03T09:26:12.752Z,29.77
2023-08-03T09:27:18.031Z,29.67
2023-08-03T09:29:39.236Z,28.94
2023-08-03T09:32:06.096Z,28.07
2023-08-03T09:34:43.241Z,28.70
2023-08-03T09:37:55.746Z,29.12
2023-08-03T09:40:21.128Z,28.90
2023-08-03T09:42:42.571Z,28.79
2023-08-03T09:43:48.835Z,28.96
2023-08-03T09:44:51.846Z,28.99
2023-08-03T09:45:56.925Z,28.31
2023-08-03T09:47:00.931Z,29.05
2023-08-03T09:48:03.453Z,29.07
2023-08-03T09:50:11.156Z,29.20
2023-08-03T09:51:13.755Z,28.64
2023-08-03T09:52:49.411Z,28.52
2023-08-03T09:53:45.475Z,28.86
2023-08-03T09:56:04.902Z,27.82
2023-08-03T09:58:17.634Z,27.99
2023-08-03T09:59:27.205Z,27.67
2023-08-03T10:00:30.085Z,26.99
2023-08-03T10:01:33.779Z,28.16
2023-08-03T10:02:45.233Z,28.15
2023-08-03T10:03:51.673Z,26.74
2023-08-03T10:05:01.873Z,28.21
2023-08-03T10:06:06.059Z,27.62
2023-08-03T10:07:10.492Z,27.60
2023-08-03T10:08:36.053Z,28.04
2023-08-03T10:09:45.663Z,28.32
2023-08-03T10:10:50.136Z,28.41
2023-08-03T10:11:55.217Z,27.96
2023-08-03T10:13:03.369Z,28.99
2023-08-03T10:14:06.255Z,29.05
2023-08-03T10:15:10.404Z,28.67
2023-08-03T10:16:12.650Z,29.16
2023-08-03T10:17:15.334Z,28.88
2023-08-03T10:18:20.371Z,28.57
2023-08-03T10:19:26.096Z,29.05
2023-08-03T10:20:30.417Z,29.35
2023-08-03T10:21:35.744Z,29.28
2023-08-03T10:22:37.479Z,29.12
2023-08-03T10:23:46.543Z,29.11
2023-08-03T10:25:20.539Z,29.09
2023-08-03T10:26:25.543Z,29.03
2023-08-03T10:27:27.317Z,29.09
2023-08-03T10:28:49.390Z,29.92
2023-08-03T10:29:51.036Z,30.28
2023-08-03T10:31:06.119Z,29.91
2023-08-03T10:32:08.137Z,30.13
2023-08-03T10:33:09.824Z,30.32
2023-08-03T10:34:13.517Z,30.45
2023-08-03T10:35:39.231Z,30.37
2023-08-03T10:36:47.880Z,30.19
2023-08-03T10:37:51.187Z,30.52
2023-08-03T10:38:58.757Z,30.43
2023-08-03T10:40:01.975Z,31.13
2023-08-03T10:41:22.934Z,31.65
2023-08-03T10:42:36.203Z,30.62
2023-08-03T10:43:38.597Z,30.40
2023-08-03T10:44:42.680Z,30.84
2023-08-03T10:45:44.647Z,31.58
2023-08-03T10:46:49.460Z,30.59
2023-08-03T10:47:51.710Z,30.59
2023-08-03T10:48:53.582Z,30.28
2023-08-03T10:49:57.532Z,30.62
2023-08-03T10:51:04.124Z,30.13
2023-08-03T10:52:18.804Z,30.66
2023-08-03T10:53:20.703Z,30.68
2023-08-03T10:54:29.350Z,30.63
2023-08-03T10:55:30.982Z,30.31
2023-08-03T10:56:32.676Z,31.22
2023-08-03T10:57:34.313Z,31.51
2023-08-03T10:58:45.878Z,31.29
2023-08-03T10:59:53.803Z,31.55
2023-08-03T11:00:55.541Z,31.20
2023-08-03T11:01:57.255Z,30.88
2023-08-03T11:03:01.832Z,30.93
2023-08-03T11:04:03.797Z,30.25
2023-08-03T11:05:09.008Z,30.71
2023-08-03T11:06:16.801Z,31.11
2023-08-03T11:07:23.172Z,30.90
2023-08-03T11:08:25.036Z,31.20
2023-08-03T11:09:26.953Z,31.12
2023-08-03T11:10:28.730Z,31.92
2023-08-03T11:11:34.052Z,31.92
2023-08-03T11:12:36.345Z,31.34
2023-08-03T11:13:41.372Z,31.43
2023-08-03T11:14:44.661Z,31.20
2023-08-03T11:15:46.425Z,31.19
2023-08-03T11:16:49.550Z,31.40
2023-08-03T11:17:51.884Z,31.42
2023-08-03T11:18:54.190Z,31.11
2023-08-03T11:19:56.897Z,31.50
2023-08-03T11:20:58.690Z,31.01
2023-08-03T11:22:03.459Z,31.13
2023-08-03T11:23:05.174Z,30.68
2023-08-03T11:24:07.011Z,30.96
2023-08-03T11:25:08.998Z,30.79
2023-08-03T11:26:11.662Z,31.02
2023-08-03T11:27:14.012Z,31.20
2023-08-03T11:28:22.532Z,31.22
2023-08-03T11:29:24.485Z,31.67
2023-08-03T11:30:27.187Z,30.89
2023-08-03T11:31:28.946Z,31.44
2023-08-03T11:32:31.720Z,31.19
2023-08-03T11:33:36.207Z,31.16
2023-08-03T11:34:38.035Z,31.08
2023-08-03T11:35:41.616Z,31.80
2023-08-03T11:36:51.875Z,31.40
2023-08-03T11:37:53.665Z,31.24
2023-08-03T11:38:55.431Z,31.61
2023-08-03T11:40:00.341Z,31.68
2023-08-03T11:41:02.505Z,31.37
2023-08-03T11:42:04.986Z,31.83
2023-08-03T11:43:12.054Z,31.25
2023-08-03T11:44:13.797Z,32.03
2023-08-03T11:45:15.371Z,31.73
2023-08-03T11:46:22.473Z,31.47
2023-08-03T11:47:24.791Z,31.74
2023-08-03T11:48:27.258Z,31.41
2023-08-03T11:49:31.545Z,31.72
2023-08-03T11:50:33.393Z,31.02
2023-08-03T11:51:37.368Z,31.05
2023-08-03T11:52:39.214Z,31.34
2023-08-03T11:53:43.506Z,31.23
2023-08-03T11:54:46.364Z,31.05
2023-08-03T11:55:49.207Z,30.99
2023-08-03T11:56:51.812Z,31.29
2023-08-03T11:58:14.167Z,30.91
2023-08-03T11:59:15.984Z,31.86
2023-08-03T12:00:22.240Z,31.04
2023-08-03T12:01:29.279Z,30.86
2023-08-03T12:02:42.645Z,31.29
2023-08-03T12:03:44.556Z,30.86
2023-08-03T12:04:53.921Z,30.07
2023-08-03T12:06:07.115Z,31.16
2023-08-03T12:08:20.520Z,30.95
2023-08-03T12:09:30.493Z,30.55
2023-08-03T12:10:32.282Z,30.55
2023-08-03T12:12:41.964Z,30.83
2023-08-03T12:13:46.516Z,30.04
2023-08-03T12:14:48.287Z,29.94
2023-08-03T12:15:49.945Z,30.76
2023-08-03T12:16:58.191Z,30.98
2023-08-03T12:18:00.203Z,31.45
2023-08-03T12:19:03.350Z,31.03
2023-08-03T12:20:06.526Z,30.52
2023-08-03T12:21:10.843Z,30.39
2023-08-03T12:22:13.462Z,31.00
2023-08-03T12:23:15.227Z,29.99
2023-08-03T12:24:16.825Z,30.38
2023-08-03T12:25:18.715Z,30.70
2023-08-03T12:26:22.935Z,30.57
2023-08-03T12:27:24.731Z,29.78
2023-08-03T12:28:28.188Z,30.65
2023-08-03T12:29:30.505Z,30.28
2023-08-03T12:30:34.565Z,30.47
2023-08-03T12:31:38.762Z,30.13
2023-08-03T12:32:40.639Z,29.64
2023-08-03T12:33:42.413Z,30.27
2023-08-03T12:34:44.104Z,30.37
2023-08-03T12:35:45.693Z,30.46
2023-08-03T12:36:49.730Z,29.89
2023-08-03T12:37:57.398Z,29.51
2023-08-03T12:38:59.618Z,30.15
2023-08-03T12:40:01.397Z,30.40
2023-08-03T12:41:05.263Z,29.66
2023-08-03T12:42:09.679Z,29.64
2023-08-03T12:43:11.423Z,29.51
2023-08-03T12:44:13.321Z,29.54
2023-08-03T12:45:15.058Z,29.44
2023-08-03T12:46:17.858Z,29.37
2023-08-03T12:47:22.471Z,29.84
2023-08-03T12:48:24.371Z,30.46
2023-08-03T12:49:26.156Z,30.03
2023-08-03T12:50:28.041Z,28.88
2023-08-03T12:51:30.212Z,28.85
2023-08-03T12:52:34.383Z,28.65
2023-08-03T12:53:39.121Z,28.86
2023-08-03T12:54:42.905Z,28.16
2023-08-03T12:55:44.617Z,28.76
2023-08-03T12:56:47.743Z,29.25
2023-08-03T12:57:50.649Z,29.09
2023-08-03T12:58:52.440Z,29.33
2023-08-03T12:59:54.096Z,29.55
2023-08-03T13:01:01.250Z,28.82
2023-08-03T13:02:03.136Z,28.92
2023-08-03T13:03:05.373Z,27.72
2023-08-03T13:04:09.773Z,28.32
2023-08-03T13:05:14.135Z,28.21
2023-08-03T13:06:15.958Z,28.29
2023-08-03T13:07:18.308Z,28.11
2023-08-03T13:08:22.308Z,28.32
2023-08-03T13:09:26.240Z,28.50
2023-08-03T13:10:28.033Z,28.17
2023-08-03T13:11:34.093Z,27.74
2023-08-03T13:12:38.376Z,27.85
2023-08-03T13:13:40.078Z,28.09
2023-08-03T13:14:42.272Z,28.02
2023-08-03T13:15:49.782Z,27.83
2023-08-03T13:16:51.691Z,27.92
2023-08-03T13:17:57.941Z,27.91
2023-08-03T13:19:01.781Z,27.78
2023-08-03T13:20:03.864Z,27.84
2023-08-03T13:21:06.869Z,28.28
2023-08-03T13:22:08.602Z,28.16
2023-08-03T13:23:10.423Z,28.30
2023-08-03T13:24:12.084Z,28.27
2023-08-03T13:25:13.798Z,27.63
2023-08-03T13:26:15.528Z,28.02
2023-08-03T13:27:17.753Z,28.17
2023-08-03T13:28:19.415Z,28.01
2023-08-03T13:29:21.833Z,27.62
2023-08-03T13:30:23.733Z,27.29
2023-08-03T13:31:25.421Z,27.69
2023-08-03T13:32:27.291Z,28.22
2023-08-03T13:33:28.955Z,28.29
2023-08-03T13:34:30.566Z,28.04
2023-08-03T13:35:32.318Z,28.47
2023-08-03T13:36:37.478Z,28.17
2023-08-03T13:37:39.186Z,28.13
2023-08-03T13:38:40.895Z,28.04
2023-08-03T13:39:44.970Z,27.61
2023-08-03T13:40:46.718Z,28.07
2023-08-03T13:41:50.663Z,28.03
2023-08-03T13:42:52.321Z,28.30
2023-08-03T13:43:53.857Z,28.19
2023-08-03T13:44:56.616Z,28.03
2023-08-03T13:45:58.331Z,28.06
2023-08-03T13:47:06.041Z,27.92
2023-08-03T13:48:07.957Z,27.69
2023-08-03T13:49:11.945Z,27.89
2023-08-03T13:50:16.723Z,27.51
2023-08-03T13:51:18.842Z,27.58
2023-08-03T13:52:20.772Z,27.58
2023-08-03T13:53:22.481Z,27.88
2023-08-03T13:54:24.241Z,27.48
2023-08-03T13:55:25.947Z,27.22
2023-08-03T13:57:34.993Z,27.41
2023-08-03T13:59:44.222Z,27.47
2023-08-03T14:00:46.778Z,27.59
2023-08-03T14:02:02.305Z,27.88
2023-08-03T14:03:06.252Z,28.11
2023-08-03T14:04:16.336Z,27.80
2023-08-03T14:05:42.499Z,27.56
2023-08-03T14:12:16.719Z,26.11
2023-08-03T14:13:18.770Z,26.46
2023-08-03T14:16:33.095Z,26.46
2023-08-03T14:19:44.325Z,26.92
2023-08-03T14:21:53.565Z,27.61
2023-08-03T14:22:55.993Z,26.41
2023-08-03T14:26:06.888Z,26.05
2023-08-03T14:27:23.101Z,25.45
2023-08-03T14:29:29.967Z,25.77
2023-08-03T14:30:31.648Z,26.43
2023-08-03T14:31:33.607Z,25.88